Flight Track Log - Related Links

Times and Time Zones

All times are in EDT time to prevent confusion due to time zone crossing. See the UCA3597 flight status page for this flight to view local times or setup timezone preferences in your user account.

Time Position Orientation Groundspeed Altitude Reporting Facility
EDT Latitude Longitude Course Direction KTS MPH feet Rate Location/Type
Tue 07:18:14 PM 42.2058 -76.0478 212° Southwest 126 145 4,800  Level New York Center
Tue 07:19:15 PM 42.1625 -76.0836 212° Southwest 132 152 6,900 2,100 Climbing New York Center
Tue 07:20:14 PM 42.1194 -76.1192 211° Southwest 170 196 9,000 1,934 Climbing New York Center
Tue 07:21:16 PM 42.0739 -76.1575 212° Southwest 190 219 10,800 3,443 Climbing New York Center
Tue 07:22:16 PM 42.0197 -76.2033 212° Southwest 203 234 16,000 2,644 Climbing New York Center
Tue 07:23:14 PM 41.9786 -76.2389 213° Southwest 203 234 16,000 50 Level New York Center
Tue 07:24:15 PM 41.9267 -76.2819 212° Southwest 254 292 16,100 50 Climbing New York Center
Tue 07:25:14 PM 41.8636 -76.3381 214° Southwest 256 295 16,100  Level New York Center
Tue 07:26:15 PM 41.8053 -76.3861 212° Southwest 273 314 16,100  Level New York Center
Tue 07:27:16 PM 41.7378 -76.4444 213° Southwest 283 326 16,100 -50 Level New York Center
Tue 07:28:15 PM 41.6706 -76.4997 212° Southwest 289 333 16,000 -50 Descending New York Center
Tue 07:29:15 PM 41.5989 -76.5603 212° Southwest 289 333 16,000  Level New York Center
Tue 07:30:14 PM 41.5275 -76.6150 210° Southwest 289 333 16,000  Level New York Center
Tue 07:31:15 PM 41.4689 -76.6653 213° Southwest 289 333 16,000  Level New York Center
Tue 07:32:14 PM 41.4011 -76.7258 214° Southwest 289 333 16,000  Level New York Center
Tue 07:33:14 PM 41.3361 -76.7781 211° Southwest 289 333 16,000  Level New York Center
Tue 07:34:15 PM 41.2497 -76.7981 190° South 294 338 16,000  Level New York Center
Tue 07:35:16 PM 41.1636 -76.8122 187° South 305 351 16,000  Level New York Center
Tue 07:36:14 PM 41.0792 -76.8297 189° South 305 351 16,000  Level New York Center
Tue 07:37:14 PM 40.9953 -76.8442 187° South 305 351 16,000  Level New York Center
Tue 07:38:15 PM 40.9025 -76.8633 189° South 312 359 16,000  Level New York Center
Tue 07:39:17 PM 40.8183 -76.8806 189° South 312 359 16,000  Level New York Center
Tue 07:40:14 PM 40.7378 -76.9033 192° South 312 359 16,000 -51 Level New York Center
Tue 07:41:15 PM 40.6556 -76.9261 192° South 307 353 15,900 -50 Descending New York Center
Tue 07:42:14 PM 40.5831 -76.9525 195° South 302 348 15,900  Level New York Center
Tue 07:43:15 PM 40.4922 -76.9772 192° South 302 348 15,900  Level New York Center
Tue 07:44:16 PM 40.4203 -77.0006 194° South 302 348 15,900  Level New York Center
Tue 07:45:16 PM 40.3333 -77.0283 194° South 302 348 15,900  Level New York Center
Tue 07:46:15 PM 40.2592 -77.0486 192° South 302 348 15,900 -300 Level New York Center
Tue 07:47:16 PM 40.1722 -77.0761 194° South 302 348 15,300 -779 Descending New York Center
Tue 07:49:43 PM 39.9667 -77.1333 192° South 300 345 13,200 -841 Descending Potomac TRACON
Tue 07:50:43 PM 39.8833 -77.1667 197° South 294 338 12,400 -875 Descending Potomac TRACON
Tue 07:53:43 PM 39.6500 -77.2667 180° South 297 342 9,700 -900 Descending Potomac TRACON
Tue 07:54:43 PM 39.5833 -77.3000 201° Southwest 293 337 8,800 -900 Descending Potomac TRACON
Tue 07:55:43 PM 39.5000 -77.3167 189° South 279 321 7,900 -900 Descending Potomac TRACON
Tue 07:56:43 PM 39.4333 -77.3500 201° Southwest 253 291 7,000 -800 Descending Potomac TRACON
Tue 07:57:43 PM 39.3667 -77.3667 191° South 263 303 6,300 -900 Descending Potomac TRACON
Tue 07:58:43 PM 39.2833 -77.3667 180° South 262 302 5,200 -767 Descending Potomac TRACON
Tue 08:00:43 PM 39.1500 -77.3500 180° South 245 282 4,000 -400 Descending Potomac TRACON
Tue 08:03:43 PM 38.9333 -77.3667 345° North 267 307 3,200 -299 Descending Potomac TRACON
Tue 08:05:44 PM 38.8000 -77.3833 186° South 257 296 2,500 -548 Descending Potomac TRACON
Tue 08:07:44 PM 38.8833 -77.4333 335° Northwest 150 173 1,000 -750 Descending Potomac TRACON
Tue 08:09:00 PM 38.9474 -77.4599 345° North  Level Estimated
Tue 08:09:00 PM 38.9333 -77.4500 349° North  Level FlightAware Approximate
Tue 08:16:00 PM 38.9474 -77.4599 349° North  Level Estimated
Tue 08:17:00 PM 38.9474 -77.4599 349° North  Level Estimated

Login

Don't have an account? Register now (free) for customized features, flight alerts, and more!